Startpagina
METAR-TAF:

METAR-TAF

Vliegvelden :

Mönchengladbach, Duitsland

Flughafen Mönchengladbach

breedte: 51-13-49N, lengte: 006-30-16E, hoogte: 38 m

Actueel weer

Dit bericht is 32 minuten geleden gemaakt, om 16:20 UTC
Wind 9 kt uit het oostnoordoosten
Temperatuur 3°C
Vochtigheid 52%
Druk 1022 hPa
Zicht 10 km of meer
geen wolken onder 1500 m en geen cumulonimbus

METAR: EDLN 221620Z 06009KT CAVOK 03/M06 Q1022

Tijdstip: 17:52 (16:52 UTC)

Verwachting

Dit bericht is 2 uur en het 52 minuten geleden gemaakt, om 14:00 UTC
Verwachting geldig van 22 om 15 UTC tot 22 om 24 UTC
Wind 12 kt uit het oostnoordoosten
Zicht 10 km of meer
geen wolken onder 1500 m en geen cumulonimbus
Wijzigt naar
van 22 om 17 UTC tot 22 om 19 UTC
Wind 6 kt uit het oostnoordoosten

TAF: EDLN 221400Z 2215/2224 06012KT CAVOK BECMG 2217/2219 06006KT

Waarnemingen en weersverwachtingen van meer dan 4000 vliegvelden (METAR en TAF).

De beschikbare stations zijn de gele en rode punten op de kaart.

Ga met uw muis naar het station om de naam te zien.

Klik dan om waarnemingen en weersverwachtingen te zien.

kaart wijzigen: klik op de groene knoppen met een zwart kruis om in te zoomen, op de groene knop met een streepje om uit te zoomen of op de groene pijlen voor aangrenzende kaarten.


METAR-TAF: